메인 페이지
METAR-TAF:

METAR-TAF

공항 :

Porterville, 캘리포니아, 미국

Porterville Municipal Airport

위도: 36-02N, 경도: 119-04W, 고도: 135m

현재 날씨관측

예보는 18 시간 29분 전, 14:56시(UTC)에 발표되었습니다.
남동4kt
온도 -3°C
습도 80%
기압 1023 hPa
시정: 16.1km
맑음

METAR: KPTV 201456Z AUTO 14004KT 10SM CLR M03/M06 A3022 RMK AO2 SLP249 T10331061 53018 FZRANO

시각: 01:25 (09:25 UTC)


TAF: 누락

4,000개 이상의 공항 관측 자료 및 예보 (METAR 및 TAF 보고).

지도상에서 검색 가능한 기상관측소가 노란 점과 빨간 점으로 표시되어 있습니다.

기상관측소 명을 보려면 표시 위로 마우스를 이동하세요.

날씨 관측과 예보를 보려면 클릭하세요.

지도 변경 : 확대하려면 엑스 표시가 있는 녹색 버튼, 축소하려면 빼기 표시가 있는 녹색 버튼, 다음 페이지의 지도를 보려면 녹색 화살표를 클릭하세요.


METAR-TAF: